createdAt,value
2023-04-26T00:00:28.742Z,23.40
2023-04-26T00:01:28.702Z,23.20
2023-04-26T00:02:28.738Z,22.30
2023-04-26T00:03:28.807Z,23.80
2023-04-26T00:04:28.908Z,23.10
2023-04-26T00:05:28.699Z,22.30
2023-04-26T00:06:28.676Z,22.90
2023-04-26T00:07:28.737Z,21.80
2023-04-26T00:08:28.608Z,23.20
2023-04-26T00:09:28.625Z,23.20
2023-04-26T00:10:28.606Z,22.20
2023-04-26T00:11:28.581Z,22.90
2023-04-26T00:12:28.561Z,22.90
2023-04-26T00:13:28.534Z,23.20
2023-04-26T00:14:28.553Z,22.90
2023-04-26T00:15:28.518Z,23.10
2023-04-26T00:16:28.532Z,22.30
2023-04-26T00:17:28.508Z,22.90
2023-04-26T00:18:28.494Z,22.50
2023-04-26T00:19:28.479Z,23.90
2023-04-26T00:20:28.516Z,24.90
2023-04-26T00:21:28.467Z,22.90
2023-04-26T00:22:28.510Z,23.00
2023-04-26T00:23:28.413Z,23.60
2023-04-26T00:24:28.430Z,24.20
2023-04-26T00:25:28.415Z,22.90
2023-04-26T00:26:28.398Z,23.80
2023-04-26T00:27:28.396Z,23.30
2023-04-26T00:28:28.362Z,24.40
2023-04-26T00:29:28.373Z,23.20
2023-04-26T00:30:28.334Z,25.90
2023-04-26T00:31:28.359Z,24.10
2023-04-26T00:32:28.323Z,23.10
2023-04-26T00:33:28.280Z,22.80
2023-04-26T00:34:28.328Z,22.80
2023-04-26T00:35:28.293Z,24.30
2023-04-26T00:36:28.276Z,23.10
2023-04-26T00:37:28.256Z,22.80
2023-04-26T00:38:28.241Z,23.50
2023-04-26T00:39:28.201Z,23.60
2023-04-26T00:40:28.208Z,23.80
2023-04-26T00:41:28.225Z,25.40
2023-04-26T00:42:28.200Z,24.90
2023-04-26T00:43:28.153Z,23.10
2023-04-26T00:44:28.182Z,24.80
2023-04-26T00:45:28.202Z,24.40
2023-04-26T00:46:28.168Z,23.80
2023-04-26T00:47:28.175Z,23.60
2023-04-26T00:48:28.162Z,24.00
2023-04-26T00:49:28.090Z,25.20
2023-04-26T00:50:28.083Z,26.00
2023-04-26T00:51:28.117Z,23.40
2023-04-26T00:52:28.071Z,24.20
2023-04-26T00:53:28.076Z,23.70
2023-04-26T00:54:28.052Z,25.20
2023-04-26T00:55:28.046Z,25.20
2023-04-26T00:56:27.999Z,24.00
2023-04-26T00:57:27.984Z,25.10
2023-04-26T00:58:28.002Z,23.40
2023-04-26T00:59:27.994Z,23.60
2023-04-26T01:00:27.986Z,24.70
2023-04-26T01:01:27.980Z,23.90
2023-04-26T01:02:28.048Z,24.60
2023-04-26T01:03:28.018Z,23.90
2023-04-26T01:04:27.941Z,23.80
2023-04-26T01:05:27.911Z,24.40
2023-04-26T01:06:27.889Z,25.90
2023-04-26T01:07:27.870Z,23.20
2023-04-26T01:08:27.871Z,24.30
2023-04-26T01:09:27.825Z,27.10
2023-04-26T01:10:27.847Z,23.40
2023-04-26T01:11:27.809Z,24.00
2023-04-26T01:12:27.782Z,24.40
2023-04-26T01:13:27.794Z,23.80
2023-04-26T01:14:27.779Z,25.20
2023-04-26T01:15:27.803Z,24.10
2023-04-26T01:16:27.783Z,24.30
2023-04-26T01:17:27.833Z,25.80
2023-04-26T01:18:27.747Z,26.00
2023-04-26T01:19:27.742Z,23.80
2023-04-26T01:20:27.714Z,25.40
2023-04-26T01:21:27.673Z,26.40
2023-04-26T01:22:27.686Z,25.50
2023-04-26T01:23:27.654Z,25.70
2023-04-26T01:24:27.645Z,25.60
2023-04-26T01:25:27.637Z,24.00
2023-04-26T01:26:27.632Z,25.00
2023-04-26T01:27:27.605Z,25.40
2023-04-26T01:28:27.595Z,24.80
2023-04-26T01:29:27.600Z,26.10
2023-04-26T01:30:27.568Z,26.40
2023-04-26T01:31:27.625Z,28.80
2023-04-26T01:32:27.619Z,25.70
2023-04-26T01:33:27.549Z,25.90
2023-04-26T01:34:27.543Z,24.90
2023-04-26T01:35:27.526Z,25.80
2023-04-26T01:36:27.517Z,25.10
2023-04-26T01:37:27.482Z,26.80
2023-04-26T01:38:27.461Z,24.20
2023-04-26T01:39:27.488Z,25.00
2023-04-26T01:40:27.473Z,25.60
2023-04-26T01:41:27.432Z,24.70
2023-04-26T01:42:27.448Z,23.70
2023-04-26T01:43:27.415Z,24.90
2023-04-26T01:44:27.393Z,24.00
2023-04-26T01:45:27.370Z,25.70
2023-04-26T01:46:27.458Z,25.10
2023-04-26T01:47:27.359Z,25.80
2023-04-26T01:48:27.338Z,25.10
2023-04-26T01:49:27.351Z,26.40
2023-04-26T01:50:27.302Z,25.00
2023-04-26T01:51:27.316Z,24.50
2023-04-26T01:52:27.313Z,26.60
2023-04-26T01:53:27.254Z,24.80
2023-04-26T01:54:27.272Z,24.30
2023-04-26T01:55:27.246Z,24.10
2023-04-26T01:56:27.237Z,26.20
2023-04-26T01:57:27.258Z,26.60
2023-04-26T01:58:27.199Z,25.80
2023-04-26T01:59:27.232Z,26.00
2023-04-26T02:00:27.172Z,25.10
2023-04-26T02:01:27.189Z,26.50
2023-04-26T02:02:27.173Z,27.10
2023-04-26T02:03:27.219Z,25.10
2023-04-26T02:04:27.184Z,25.10
2023-04-26T02:05:27.142Z,25.90
2023-04-26T02:06:27.102Z,24.40
2023-04-26T02:07:27.083Z,24.70
2023-04-26T02:08:27.095Z,25.30
2023-04-26T02:09:27.046Z,27.30
2023-04-26T02:10:27.047Z,26.10
2023-04-26T02:11:27.167Z,26.40
2023-04-26T02:12:27.029Z,25.30
2023-04-26T02:13:27.029Z,27.30
2023-04-26T02:14:27.001Z,26.00
2023-04-26T02:15:26.972Z,26.60
2023-04-26T02:16:27.131Z,25.60
2023-04-26T02:17:27.001Z,24.90
2023-04-26T02:18:26.965Z,26.60
2023-04-26T02:19:26.949Z,27.60
2023-04-26T02:20:26.937Z,24.90
2023-04-26T02:21:26.924Z,24.50
2023-04-26T02:22:26.929Z,25.00
2023-04-26T02:23:26.921Z,25.00
2023-04-26T02:24:26.868Z,26.30
2023-04-26T02:25:26.870Z,26.80
2023-04-26T02:26:26.870Z,25.70
2023-04-26T02:27:26.898Z,25.40
2023-04-26T02:28:26.829Z,26.80
2023-04-26T02:29:42.341Z,25.30
2023-04-26T02:30:27.803Z,24.70
2023-04-26T02:31:26.833Z,24.80
2023-04-26T02:32:26.822Z,27.20
2023-04-26T02:33:26.777Z,25.20
2023-04-26T02:34:26.758Z,25.20
2023-04-26T02:35:26.748Z,24.90
2023-04-26T02:36:26.723Z,26.40
2023-04-26T02:37:26.719Z,26.10
2023-04-26T02:38:26.688Z,25.70
2023-04-26T02:39:26.695Z,25.40
2023-04-26T02:40:26.713Z,26.10
2023-04-26T02:41:26.650Z,25.00
2023-04-26T02:42:26.663Z,25.70
2023-04-26T02:43:26.616Z,26.20
2023-04-26T02:44:26.615Z,25.30
2023-04-26T02:45:26.582Z,25.40
2023-04-26T02:46:26.599Z,25.60
2023-04-26T02:47:26.673Z,26.20
2023-04-26T02:48:26.564Z,26.10
2023-04-26T02:49:26.533Z,25.70
2023-04-26T02:50:26.542Z,25.40
2023-04-26T02:51:26.568Z,27.60
2023-04-26T02:52:26.517Z,25.20
2023-04-26T02:53:26.563Z,26.20
2023-04-26T02:54:26.521Z,25.90
2023-04-26T02:55:26.486Z,26.60
2023-04-26T02:56:26.618Z,24.70
2023-04-26T02:57:26.464Z,24.70
2023-04-26T02:58:26.466Z,25.50
2023-04-26T02:59:26.449Z,27.10
2023-04-26T03:00:26.432Z,28.70
2023-04-26T03:01:26.572Z,27.00
2023-04-26T03:02:26.636Z,25.70
2023-04-26T03:03:33.597Z,25.70
2023-04-26T03:04:26.358Z,25.60
2023-04-26T03:05:26.338Z,25.00
2023-04-26T03:06:26.306Z,26.40
2023-04-26T03:07:26.303Z,25.60
2023-04-26T03:08:26.296Z,26.10
2023-04-26T03:09:26.266Z,25.60
2023-04-26T03:10:26.253Z,26.00
2023-04-26T03:11:26.236Z,26.10
2023-04-26T03:12:26.288Z,28.00
2023-04-26T03:13:26.229Z,26.20
2023-04-26T03:14:26.210Z,26.00
2023-04-26T03:15:26.181Z,26.30
2023-04-26T03:16:33.283Z,25.90
2023-04-26T03:17:26.223Z,25.40
2023-04-26T03:18:26.209Z,26.10
2023-04-26T03:19:26.158Z,25.90
2023-04-26T03:20:26.129Z,26.00
2023-04-26T03:21:26.148Z,26.00
2023-04-26T03:22:26.145Z,26.00
2023-04-26T03:23:26.114Z,25.30
2023-04-26T03:24:26.106Z,26.90
2023-04-26T03:25:26.088Z,27.00
2023-04-26T03:26:26.080Z,25.80
2023-04-26T03:27:26.067Z,27.20
2023-04-26T03:28:26.049Z,26.90
2023-04-26T03:29:26.075Z,25.50
2023-04-26T03:30:26.025Z,26.40
2023-04-26T03:31:26.072Z,27.70
2023-04-26T03:32:25.997Z,27.10
2023-04-26T03:33:25.998Z,26.30
2023-04-26T03:34:25.961Z,26.70
2023-04-26T03:35:25.990Z,25.70
2023-04-26T03:36:25.943Z,26.30
2023-04-26T03:37:25.974Z,26.40
2023-04-26T03:38:25.951Z,26.30
2023-04-26T03:39:25.919Z,26.90
2023-04-26T03:40:25.904Z,26.50
2023-04-26T03:41:25.919Z,25.30
2023-04-26T03:42:25.859Z,26.60
2023-04-26T03:43:25.876Z,25.90
2023-04-26T03:44:25.908Z,26.60
2023-04-26T03:45:25.860Z,25.80
2023-04-26T03:46:25.866Z,26.10
2023-04-26T03:47:25.880Z,25.70
2023-04-26T03:48:25.821Z,25.10
2023-04-26T03:49:25.814Z,27.00
2023-04-26T03:50:25.770Z,27.30
2023-04-26T03:51:25.791Z,26.40
2023-04-26T03:52:25.792Z,26.30
2023-04-26T03:53:25.817Z,27.40
2023-04-26T03:54:25.745Z,26.50
2023-04-26T03:55:25.776Z,26.10
2023-04-26T03:56:25.722Z,26.30
2023-04-26T03:57:25.690Z,27.20
2023-04-26T03:58:25.668Z,28.20
2023-04-26T03:59:25.709Z,26.80
2023-04-26T04:00:25.702Z,27.90
2023-04-26T04:01:25.617Z,27.50
2023-04-26T04:02:25.666Z,27.10
2023-04-26T04:03:25.897Z,26.90
2023-04-26T04:04:25.860Z,26.90
2023-04-26T04:05:25.644Z,27.30
2023-04-26T04:06:25.578Z,26.90
2023-04-26T04:07:25.567Z,29.80
2023-04-26T04:08:25.589Z,26.70
2023-04-26T04:09:25.556Z,26.50
2023-04-26T04:10:25.521Z,27.80
2023-04-26T04:11:25.526Z,27.20
2023-04-26T04:12:25.492Z,26.70
2023-04-26T04:13:25.479Z,26.90
2023-04-26T04:14:25.493Z,26.80
2023-04-26T04:15:25.502Z,28.20
2023-04-26T04:16:25.500Z,27.00
2023-04-26T04:17:25.441Z,28.30
2023-04-26T04:18:25.433Z,27.10
2023-04-26T04:19:25.402Z,27.50
2023-04-26T04:20:25.397Z,26.10
2023-04-26T04:21:25.430Z,26.30
2023-04-26T04:22:25.364Z,28.70
2023-04-26T04:23:25.374Z,27.40
2023-04-26T04:24:25.314Z,27.40
2023-04-26T04:25:25.345Z,26.60
2023-04-26T04:26:25.368Z,26.80
2023-04-26T04:27:25.307Z,27.10
2023-04-26T04:28:25.294Z,28.70
2023-04-26T04:29:25.257Z,28.00
2023-04-26T04:30:25.271Z,26.70
2023-04-26T04:31:25.375Z,26.00
2023-04-26T04:32:25.269Z,26.90
2023-04-26T04:33:25.206Z,26.60
2023-04-26T04:34:25.229Z,27.40
2023-04-26T04:35:25.244Z,27.20
2023-04-26T04:36:25.235Z,27.30
2023-04-26T04:37:25.184Z,26.10
2023-04-26T04:38:25.160Z,27.50
2023-04-26T04:39:25.136Z,28.00
2023-04-26T04:40:25.211Z,28.30
2023-04-26T04:41:25.126Z,25.80
2023-04-26T04:42:25.171Z,25.90
2023-04-26T04:43:25.103Z,27.70
2023-04-26T04:44:25.065Z,26.20
2023-04-26T04:45:25.068Z,26.00
2023-04-26T04:46:25.071Z,26.40
2023-04-26T04:47:25.189Z,26.60
2023-04-26T04:48:25.046Z,26.70
2023-04-26T04:49:25.003Z,26.90
2023-04-26T04:50:24.985Z,25.80
2023-04-26T04:51:24.995Z,26.20
2023-04-26T04:52:24.989Z,26.50
2023-04-26T04:53:24.969Z,26.10
2023-04-26T04:54:24.956Z,26.90
2023-04-26T04:55:24.965Z,25.50
2023-04-26T04:56:24.944Z,26.60
2023-04-26T04:57:24.919Z,26.00
2023-04-26T04:58:24.892Z,26.40
2023-04-26T04:59:24.893Z,26.10
2023-04-26T05:00:24.861Z,26.30
2023-04-26T05:01:24.929Z,27.50
2023-04-26T05:02:24.987Z,26.80
2023-04-26T05:03:25.040Z,27.90
2023-04-26T05:04:25.024Z,26.90
2023-04-26T05:05:24.839Z,26.50
2023-04-26T05:06:24.811Z,26.30
2023-04-26T05:07:24.827Z,27.00
2023-04-26T05:08:24.774Z,26.10
2023-04-26T05:09:24.768Z,26.00
2023-04-26T05:10:24.770Z,26.50
2023-04-26T05:11:24.742Z,26.50
2023-04-26T05:12:24.709Z,26.60
2023-04-26T05:13:24.678Z,25.40
2023-04-26T05:14:24.702Z,27.10
2023-04-26T05:15:24.674Z,26.20
2023-04-26T05:16:24.785Z,26.40
2023-04-26T05:17:24.682Z,27.70
2023-04-26T05:18:24.651Z,26.10
2023-04-26T05:19:24.651Z,25.40
2023-04-26T05:20:24.626Z,25.70
2023-04-26T05:21:24.596Z,25.00
2023-04-26T05:22:24.617Z,25.60
2023-04-26T05:23:24.589Z,27.70
2023-04-26T05:24:24.578Z,26.70
2023-04-26T05:25:24.524Z,26.60
2023-04-26T05:26:24.526Z,26.40
2023-04-26T05:27:24.531Z,27.00
2023-04-26T05:28:24.504Z,24.50
2023-04-26T05:29:24.501Z,25.40
2023-04-26T05:30:24.551Z,26.00
2023-04-26T05:31:24.562Z,25.70
2023-04-26T05:32:24.492Z,25.20
2023-04-26T05:33:24.471Z,25.00
2023-04-26T05:34:24.465Z,25.70
2023-04-26T05:35:24.405Z,26.30
2023-04-26T05:36:24.394Z,25.80
2023-04-26T05:37:24.427Z,28.70
2023-04-26T05:38:24.379Z,24.70
2023-04-26T05:39:24.435Z,26.00
2023-04-26T05:40:24.369Z,25.20
2023-04-26T05:41:24.378Z,25.00
2023-04-26T05:42:24.357Z,25.20
2023-04-26T05:43:24.345Z,25.70
2023-04-26T05:44:24.323Z,25.30
2023-04-26T05:45:24.430Z,25.80
2023-04-26T05:46:24.363Z,25.00
2023-04-26T05:47:24.321Z,24.40
2023-04-26T05:48:24.298Z,24.80
2023-04-26T05:49:24.248Z,25.10
2023-04-26T05:50:24.259Z,24.90
2023-04-26T05:51:24.250Z,24.30
2023-04-26T05:52:24.210Z,24.30
2023-04-26T05:53:24.185Z,24.70
2023-04-26T05:54:24.199Z,24.40
2023-04-26T05:55:24.167Z,24.50
2023-04-26T05:56:24.202Z,25.40
2023-04-26T05:57:24.200Z,26.20
2023-04-26T05:58:24.134Z,25.80
2023-04-26T05:59:24.159Z,24.80
2023-04-26T06:00:24.091Z,25.10
2023-04-26T06:01:24.119Z,23.90
2023-04-26T06:02:24.189Z,26.00
2023-04-26T06:03:24.273Z,24.60
2023-04-26T06:04:24.142Z,23.90
2023-04-26T06:05:24.280Z,23.70
2023-04-26T06:06:24.017Z,25.10
2023-04-26T06:07:23.993Z,24.50
2023-04-26T06:08:24.013Z,25.20
2023-04-26T06:09:24.012Z,24.60
2023-04-26T06:10:23.969Z,24.20
2023-04-26T06:11:23.982Z,25.80
2023-04-26T06:12:23.959Z,24.00
2023-04-26T06:13:23.919Z,24.90
2023-04-26T06:15:24.913Z,24.80
2023-04-26T06:16:24.028Z,24.80
2023-04-26T06:17:23.986Z,25.70
2023-04-26T06:18:23.914Z,26.30
2023-04-26T06:19:23.870Z,25.80
2023-04-26T06:20:23.856Z,24.20
2023-04-26T06:21:23.850Z,24.80
2023-04-26T06:22:23.811Z,23.30
2023-04-26T06:23:23.814Z,24.70
2023-04-26T06:24:23.800Z,24.50
2023-04-26T06:25:23.775Z,25.20
2023-04-26T06:26:23.825Z,24.20
2023-04-26T06:27:23.760Z,23.00
2023-04-26T06:28:23.752Z,23.10
2023-04-26T06:29:23.731Z,24.60
2023-04-26T06:30:23.711Z,24.50
2023-04-26T06:31:23.762Z,25.40
2023-04-26T06:32:23.758Z,23.50
2023-04-26T06:33:23.663Z,24.30
2023-04-26T06:34:23.684Z,23.60
2023-04-26T06:35:23.667Z,24.80
2023-04-26T06:36:23.735Z,24.00
2023-04-26T06:37:23.635Z,23.40
2023-04-26T06:38:23.633Z,24.80
2023-04-26T06:39:23.595Z,24.50
2023-04-26T06:40:23.612Z,23.50
2023-04-26T06:41:23.599Z,24.10
2023-04-26T06:42:23.586Z,24.60
2023-04-26T06:43:23.562Z,25.80
2023-04-26T06:44:23.587Z,25.30
2023-04-26T06:45:23.605Z,22.90
2023-04-26T06:46:23.557Z,23.50
2023-04-26T06:47:23.755Z,22.60
2023-04-26T06:48:23.521Z,23.00
2023-04-26T06:49:23.475Z,23.60
2023-04-26T06:50:23.471Z,25.70
2023-04-26T06:51:23.449Z,23.20
2023-04-26T06:52:23.434Z,22.10
2023-04-26T06:53:23.510Z,22.90
2023-04-26T06:54:23.416Z,22.50
2023-04-26T06:55:23.400Z,23.20
2023-04-26T06:56:23.426Z,23.20
2023-04-26T06:57:23.422Z,23.00
2023-04-26T06:58:23.402Z,22.20
2023-04-26T06:59:23.354Z,23.40
2023-04-26T07:00:23.380Z,23.40
2023-04-26T07:01:23.357Z,24.00
2023-04-26T07:02:23.511Z,21.40
2023-04-26T07:03:23.498Z,23.30
2023-04-26T07:04:23.438Z,22.60
2023-04-26T07:05:23.492Z,21.40
2023-04-26T07:06:23.244Z,22.20
2023-04-26T07:07:23.269Z,21.90
2023-04-26T07:08:23.398Z,22.10
2023-04-26T07:09:23.275Z,22.10
2023-04-26T07:10:23.425Z,21.70
2023-04-26T07:11:25.396Z,21.80
2023-04-26T07:12:23.195Z,21.30
2023-04-26T07:13:23.179Z,22.40
2023-04-26T07:14:23.186Z,22.20
2023-04-26T07:15:23.191Z,21.50
2023-04-26T07:16:23.237Z,21.00
2023-04-26T07:17:23.109Z,21.30
2023-04-26T07:18:23.124Z,20.90
2023-04-26T07:19:23.254Z,22.20
2023-04-26T07:20:23.100Z,21.80
2023-04-26T07:21:23.081Z,22.20
2023-04-26T07:22:23.057Z,22.20
2023-04-26T07:23:23.131Z,21.50
2023-04-26T07:24:23.027Z,22.40
2023-04-26T07:25:23.024Z,21.50
2023-04-26T07:26:23.001Z,21.30
2023-04-26T07:27:22.992Z,20.60
2023-04-26T07:28:23.004Z,22.20
2023-04-26T07:29:22.976Z,21.30
2023-04-26T07:30:22.992Z,22.40
2023-04-26T07:31:22.934Z,21.80
2023-04-26T07:32:22.995Z,21.30
2023-04-26T07:33:23.142Z,22.30
2023-04-26T07:34:22.916Z,20.70
2023-04-26T07:35:22.894Z,21.90
2023-04-26T07:36:24.569Z,21.10
2023-04-26T07:37:22.850Z,21.00
2023-04-26T07:38:22.868Z,21.30
2023-04-26T07:39:22.833Z,20.80
2023-04-26T07:40:22.839Z,20.30
2023-04-26T07:41:22.808Z,20.90
2023-04-26T07:42:22.834Z,21.00
2023-04-26T07:43:22.802Z,21.00
2023-04-26T07:44:22.772Z,20.30
2023-04-26T07:45:22.760Z,19.80
2023-04-26T07:46:22.803Z,19.70
2023-04-26T07:47:22.886Z,19.50
2023-04-26T07:48:22.827Z,19.10
2023-04-26T07:49:22.698Z,20.30
2023-04-26T07:50:22.686Z,19.40
2023-04-26T07:51:22.689Z,19.10
2023-04-26T07:52:22.682Z,19.40
2023-04-26T07:53:22.649Z,20.30
2023-04-26T07:54:22.661Z,19.50
2023-04-26T07:55:22.634Z,20.10
2023-04-26T07:56:22.643Z,20.00
2023-04-26T07:57:22.616Z,19.90
2023-04-26T07:58:22.614Z,19.30
2023-04-26T07:59:22.579Z,18.90
2023-04-26T08:00:22.584Z,18.80
2023-04-26T08:01:22.574Z,19.10
2023-04-26T08:02:33.007Z,19.90
2023-04-26T08:03:23.759Z,19.70
2023-04-26T08:04:22.807Z,20.90
2023-04-26T08:05:22.741Z,19.10
2023-04-26T08:06:22.753Z,20.00
2023-04-26T08:07:22.492Z,20.30
2023-04-26T08:08:22.457Z,19.20
2023-04-26T08:09:22.480Z,20.20
2023-04-26T08:10:22.436Z,18.70
2023-04-26T08:11:22.522Z,18.90
2023-04-26T08:12:22.409Z,19.70
2023-04-26T08:13:22.389Z,19.90
2023-04-26T08:14:22.402Z,19.40
2023-04-26T08:15:22.382Z,20.00
2023-04-26T08:16:22.422Z,18.70
2023-04-26T08:17:22.386Z,19.20
2023-04-26T08:18:22.336Z,18.90
2023-04-26T08:19:22.306Z,19.10
2023-04-26T08:20:22.315Z,19.60
2023-04-26T08:21:22.271Z,19.20
2023-04-26T08:22:22.312Z,19.70
2023-04-26T08:23:22.287Z,18.90
2023-04-26T08:24:22.291Z,19.70
2023-04-26T08:25:22.253Z,19.50
2023-04-26T08:26:22.248Z,18.90
2023-04-26T08:27:22.211Z,19.40
2023-04-26T08:28:22.196Z,19.20
2023-04-26T08:29:22.195Z,19.60
2023-04-26T08:30:22.202Z,19.80
2023-04-26T08:31:22.215Z,18.60
2023-04-26T08:32:22.203Z,19.20
2023-04-26T08:33:22.126Z,18.50
2023-04-26T08:34:22.131Z,19.10
2023-04-26T08:35:22.138Z,17.50
2023-04-26T08:36:22.094Z,19.20
2023-04-26T08:37:22.084Z,18.10
2023-04-26T08:38:22.086Z,17.90
2023-04-26T08:39:22.059Z,19.60
2023-04-26T08:40:22.144Z,18.00
2023-04-26T08:41:22.035Z,19.50
2023-04-26T08:42:22.029Z,18.70
2023-04-26T08:43:22.007Z,18.00
2023-04-26T08:44:22.004Z,18.30
2023-04-26T08:45:21.990Z,18.00
2023-04-26T08:46:22.036Z,18.20
2023-04-26T08:47:21.967Z,19.40
2023-04-26T08:48:21.960Z,18.50
2023-04-26T08:49:21.944Z,19.60
2023-04-26T08:50:22.275Z,17.90
2023-04-26T08:51:21.897Z,19.10
2023-04-26T08:52:21.905Z,18.20
2023-04-26T08:53:21.884Z,19.10
2023-04-26T08:54:21.874Z,18.30
2023-04-26T08:55:21.962Z,19.00
2023-04-26T08:56:21.836Z,18.20
2023-04-26T08:57:21.829Z,19.40
2023-04-26T08:58:21.816Z,18.90
2023-04-26T08:59:21.802Z,18.90
2023-04-26T09:00:21.838Z,18.50
2023-04-26T09:01:21.870Z,18.60
2023-04-26T09:02:21.890Z,17.80
2023-04-26T09:03:21.838Z,18.60
2023-04-26T09:04:21.886Z,18.40
2023-04-26T09:05:21.728Z,18.50
2023-04-26T09:06:21.722Z,18.40
2023-04-26T09:07:21.705Z,18.10
2023-04-26T09:08:21.700Z,18.20
2023-04-26T09:09:21.668Z,17.60
2023-04-26T09:10:21.857Z,17.90
2023-04-26T09:11:21.647Z,18.20
2023-04-26T09:12:21.648Z,18.00
2023-04-26T09:13:21.632Z,17.80
2023-04-26T09:14:21.596Z,18.70
2023-04-26T09:15:21.598Z,17.90
2023-04-26T09:17:31.740Z,20.60
2023-04-26T09:18:31.683Z,20.10
2023-04-26T09:19:31.672Z,17.60
2023-04-26T09:20:31.659Z,17.30
2023-04-26T09:21:31.642Z,20.60
2023-04-26T09:22:31.631Z,18.50
2023-04-26T09:23:31.625Z,17.60
2023-04-26T09:24:31.599Z,20.30
2023-04-26T09:25:31.633Z,19.10
2023-04-26T09:26:31.609Z,19.20
2023-04-26T09:27:31.573Z,17.50
2023-04-26T09:28:31.546Z,20.20
2023-04-26T09:29:31.537Z,20.60
2023-04-26T09:30:31.522Z,20.00
2023-04-26T09:31:31.597Z,18.30
2023-04-26T09:32:31.497Z,19.40
2023-04-26T09:33:31.504Z,18.10
2023-04-26T09:34:31.480Z,19.60
2023-04-26T09:35:31.480Z,19.40
2023-04-26T09:36:31.446Z,19.50
2023-04-26T09:37:31.427Z,18.40
2023-04-26T09:38:31.425Z,18.30
2023-04-26T09:39:31.420Z,18.90
2023-04-26T09:40:31.403Z,18.60
2023-04-26T09:41:31.399Z,19.70
2023-04-26T09:42:31.366Z,19.10
2023-04-26T09:43:31.366Z,18.60
2023-04-26T09:44:31.345Z,18.60
2023-04-26T09:45:31.329Z,21.00
2023-04-26T09:46:31.320Z,18.20
2023-04-26T09:47:31.362Z,19.70
2023-04-26T09:48:31.292Z,19.00
2023-04-26T09:49:31.279Z,19.40
2023-04-26T09:50:31.267Z,20.30
2023-04-26T09:51:31.284Z,19.20
2023-04-26T09:52:31.231Z,19.30
2023-04-26T09:53:31.302Z,21.00
2023-04-26T09:54:31.211Z,19.60
2023-04-26T09:55:35.479Z,19.00
2023-04-26T09:56:31.190Z,18.70
2023-04-26T09:57:31.164Z,18.40
2023-04-26T09:58:31.144Z,17.50
2023-04-26T09:59:31.152Z,18.00
2023-04-26T10:00:31.151Z,17.40
2023-04-26T10:01:31.264Z,17.30
2023-04-26T10:02:31.164Z,18.20
2023-04-26T10:03:31.233Z,17.80
2023-04-26T10:04:31.159Z,17.00
2023-04-26T10:05:33.691Z,17.90
2023-04-26T10:06:31.042Z,17.40
2023-04-26T10:07:31.052Z,17.40
2023-04-26T10:08:31.031Z,17.70
2023-04-26T10:09:31.029Z,17.90
2023-04-26T10:10:31.055Z,16.90
2023-04-26T10:11:30.993Z,17.50
2023-04-26T10:12:30.969Z,18.80
2023-04-26T10:13:30.963Z,17.40
2023-04-26T10:14:30.956Z,17.50
2023-04-26T10:15:30.937Z,17.60
2023-04-26T10:16:31.027Z,18.70
2023-04-26T10:17:30.934Z,17.80
2023-04-26T10:18:30.885Z,18.50
2023-04-26T10:19:30.907Z,18.00
2023-04-26T10:20:30.857Z,18.30
2023-04-26T10:21:30.849Z,17.30
2023-04-26T10:22:30.845Z,18.20
2023-04-26T10:23:30.816Z,17.40
2023-04-26T10:24:30.820Z,18.20
2023-04-26T10:25:30.835Z,18.40
2023-04-26T10:26:30.774Z,18.90
2023-04-26T10:27:30.783Z,19.40
2023-04-26T10:28:30.768Z,18.00
2023-04-26T10:29:30.756Z,17.20
2023-04-26T10:30:30.728Z,17.70
2023-04-26T10:31:30.760Z,17.80
2023-04-26T10:32:30.721Z,17.40
2023-04-26T10:33:30.728Z,17.60
2023-04-26T10:34:30.678Z,17.80
2023-04-26T10:35:30.690Z,18.40
2023-04-26T10:36:30.661Z,17.60
2023-04-26T10:37:30.662Z,17.50
2023-04-26T10:38:30.639Z,17.90
2023-04-26T10:39:30.632Z,17.00
2023-04-26T10:40:30.619Z,16.50
2023-04-26T10:41:30.642Z,16.70
2023-04-26T10:42:30.607Z,17.70
2023-04-26T10:43:30.553Z,16.60
2023-04-26T10:44:30.575Z,15.60
2023-04-26T10:45:30.540Z,16.90
2023-04-26T10:46:30.563Z,15.90
2023-04-26T10:47:30.565Z,16.00
2023-04-26T10:48:30.486Z,16.00
2023-04-26T10:49:38.181Z,17.10
2023-04-26T10:50:30.616Z,15.90
2023-04-26T10:51:30.482Z,16.10
2023-04-26T10:52:30.487Z,16.30
2023-04-26T10:53:30.440Z,16.40
2023-04-26T10:54:30.430Z,15.20
2023-04-26T10:55:30.432Z,16.40
2023-04-26T10:56:30.415Z,15.90
2023-04-26T10:57:30.416Z,15.80
2023-04-26T10:58:30.540Z,16.10
2023-04-26T10:59:43.342Z,16.00
2023-04-26T11:00:32.829Z,16.70
2023-04-26T11:01:30.400Z,16.40
2023-04-26T11:02:30.411Z,15.80
2023-04-26T11:03:30.529Z,16.40
2023-04-26T11:04:30.366Z,16.50
2023-04-26T11:05:30.303Z,16.30
2023-04-26T11:06:30.320Z,17.10
2023-04-26T11:07:30.272Z,16.40
2023-04-26T11:08:30.362Z,16.70
2023-04-26T11:09:30.258Z,16.70
2023-04-26T11:10:30.234Z,17.20
2023-04-26T11:11:30.219Z,16.30
2023-04-26T11:12:30.212Z,17.20
2023-04-26T11:13:30.211Z,16.60
2023-04-26T11:14:30.184Z,16.80
2023-04-26T11:15:30.187Z,17.10
2023-04-26T11:16:30.239Z,16.50
2023-04-26T11:17:30.172Z,17.00
2023-04-26T11:18:30.123Z,18.00
2023-04-26T11:19:30.122Z,16.70
2023-04-26T11:20:30.113Z,16.60
2023-04-26T11:21:30.102Z,17.40
2023-04-26T11:22:30.174Z,17.00
2023-04-26T11:23:30.078Z,17.20
2023-04-26T11:24:30.091Z,17.60
2023-04-26T11:25:30.066Z,17.10
2023-04-26T11:26:30.012Z,16.90
2023-04-26T11:27:30.044Z,17.20
2023-04-26T11:28:31.158Z,15.70
2023-04-26T11:29:30.006Z,15.80
2023-04-26T11:30:29.989Z,16.10
2023-04-26T11:31:30.010Z,16.10
2023-04-26T11:32:29.989Z,16.60
2023-04-26T11:33:29.966Z,15.80
2023-04-26T11:34:29.939Z,16.10
2023-04-26T11:35:30.052Z,16.80
2023-04-26T11:36:29.902Z,16.80
2023-04-26T11:37:29.887Z,16.20
2023-04-26T11:38:30.003Z,16.10
2023-04-26T11:39:29.880Z,16.30
2023-04-26T11:40:29.851Z,15.70
2023-04-26T11:41:29.870Z,16.20
2023-04-26T11:42:29.820Z,15.70
2023-04-26T11:43:29.890Z,16.20
2023-04-26T11:44:29.807Z,16.50
2023-04-26T11:45:29.779Z,16.40
2023-04-26T11:46:29.821Z,16.10
2023-04-26T11:47:29.761Z,16.00
2023-04-26T11:48:29.735Z,15.80
2023-04-26T11:49:29.714Z,16.70
2023-04-26T11:50:29.743Z,16.00
2023-04-26T11:51:30.603Z,17.50
2023-04-26T11:52:29.727Z,15.70
2023-04-26T11:53:29.686Z,15.80
2023-04-26T11:54:29.665Z,16.00
2023-04-26T11:55:29.676Z,15.70
2023-04-26T11:56:29.637Z,16.50
2023-04-26T11:57:29.682Z,15.60
2023-04-26T11:58:29.611Z,16.10
2023-04-26T11:59:29.601Z,15.40
2023-04-26T12:00:29.590Z,15.40
2023-04-26T12:01:29.572Z,17.00
2023-04-26T12:02:29.743Z,16.30
2023-04-26T12:03:29.775Z,15.70
2023-04-26T12:04:30.417Z,16.00
2023-04-26T12:05:29.617Z,15.80
2023-04-26T12:06:29.502Z,15.60
2023-04-26T12:07:29.476Z,15.40
2023-04-26T12:08:29.478Z,15.50
2023-04-26T12:09:29.451Z,15.20
2023-04-26T12:10:29.472Z,15.60
2023-04-26T12:11:29.446Z,15.40
2023-04-26T12:12:29.491Z,14.80
2023-04-26T12:13:29.414Z,15.60
2023-04-26T12:14:29.445Z,14.80
2023-04-26T12:15:29.376Z,14.60
2023-04-26T12:16:29.408Z,14.40
2023-04-26T12:17:29.463Z,14.70
2023-04-26T12:18:29.344Z,14.10
2023-04-26T12:19:29.317Z,13.90
2023-04-26T12:20:29.297Z,14.70
2023-04-26T12:21:30.921Z,14.80
2023-04-26T12:22:29.283Z,14.70
2023-04-26T12:23:29.273Z,14.50
2023-04-26T12:24:29.271Z,14.70
2023-04-26T12:25:29.241Z,14.60
2023-04-26T12:26:29.263Z,14.80
2023-04-26T12:27:29.231Z,14.90
2023-04-26T12:28:29.208Z,14.30
2023-04-26T12:29:29.202Z,14.10
2023-04-26T12:30:29.175Z,14.60
2023-04-26T12:31:29.236Z,14.60
2023-04-26T12:32:29.160Z,14.50
2023-04-26T12:33:29.158Z,15.00
2023-04-26T12:34:29.137Z,13.70
2023-04-26T12:35:29.115Z,13.90
2023-04-26T12:36:29.094Z,13.50
2023-04-26T12:37:29.135Z,13.90
2023-04-26T12:38:29.086Z,13.80
2023-04-26T12:39:29.080Z,14.50
2023-04-26T12:40:29.049Z,13.90
2023-04-26T12:41:29.036Z,13.60
2023-04-26T12:42:29.032Z,13.90
2023-04-26T12:43:29.022Z,13.30
2023-04-26T12:44:28.999Z,14.00
2023-04-26T12:45:28.982Z,13.80
2023-04-26T12:46:29.072Z,13.90
2023-04-26T12:47:28.990Z,14.10
2023-04-26T12:48:28.940Z,13.70
2023-04-26T12:49:28.955Z,13.60
2023-04-26T12:50:28.924Z,14.40
2023-04-26T12:51:28.929Z,13.60
2023-04-26T12:52:28.892Z,14.40
2023-04-26T12:53:28.885Z,14.50
2023-04-26T12:54:28.874Z,14.30